Time;durP1;ratioP1;P1;durP2;ratioP2;P2;SDS_P1;SDS_P2;PMS_P1;PMS_P2;Temp;Humidity;BMP_temperature;BMP_pressure;BME280_temperature;BME280_humidity;BME280_pressure;Samples;Min_cycle;Max_cycle;Signal;HPM_P1;HPM_P2
2023/06/30 00:01:48;;;;;;;9.05;2.30;;;;;;;;;;5057978;28;20482;-70
2023/06/30 00:04:16;;;;;;;6.35;2.05;;;;;;;;;;5064440;28;20052;-69
2023/06/30 00:06:49;;;;;;;4.35;2.30;;;;;;;;;;5071009;28;20061;-69
2023/06/30 00:09:18;;;;;;;4.90;2.00;;;;;;;;;;5072188;28;20056;-70
2023/06/30 00:11:44;;;;;;;6.70;2.20;;;;;;;;;;5061098;28;20057;-69
2023/06/30 00:14:11;;;;;;;4.63;1.88;;;;;;;;;;5061835;28;20613;-69
2023/06/30 00:16:37;;;;;;;8.45;2.00;;;;;;;;;;5065821;28;20053;-69
2023/06/30 00:19:04;;;;;;;5.88;1.88;;;;;;;;;;5060495;28;20092;-68
2023/06/30 00:21:31;;;;;;;5.53;2.20;;;;;;;;;;5076197;28;20551;-68
2023/06/30 00:24:01;;;;;;;10.88;2.50;;;;;;;;;;5065083;28;20568;-68
2023/06/30 00:26:28;;;;;;;6.13;1.98;;;;;;;;;;5066178;28;20509;-68
2023/06/30 00:28:55;;;;;;;4.28;1.80;;;;;;;;;;5067185;28;20098;-68
2023/06/30 00:31:21;;;;;;;4.72;1.85;;;;;;;;;;5075868;28;20671;-68
2023/06/30 00:33:48;;;;;;;6.22;1.88;;;;;;;;;;5063034;28;20608;-68
2023/06/30 00:36:14;;;;;;;10.75;2.42;;;;;;;;;;5052653;28;20088;-68
2023/06/30 00:38:41;;;;;;;4.93;1.92;;;;;;;;;;5056159;28;20052;-68
2023/06/30 00:41:07;;;;;;;7.30;2.20;;;;;;;;;;5064788;28;20053;-70
2023/06/30 00:43:33;;;;;;;8.20;2.38;;;;;;;;;;5074982;28;20045;-70
2023/06/30 00:46:00;;;;;;;3.90;1.50;;;;;;;;;;5058284;28;20462;-70
2023/06/30 00:48:26;;;;;;;5.75;1.83;;;;;;;;;;5056316;28;20085;-69
2023/06/30 00:50:53;;;;;;;6.78;1.98;;;;;;;;;;5068684;28;20057;-68
2023/06/30 00:53:19;;;;;;;6.18;2.10;;;;;;;;;;5058819;28;20436;-69
2023/06/30 00:55:45;;;;;;;7.45;1.77;;;;;;;;;;5062646;28;20542;-69
2023/06/30 00:58:12;;;;;;;3.38;2.10;;;;;;;;;;5051521;28;20053;-69
2023/06/30 01:00:39;;;;;;;3.45;2.20;;;;;;;;;;5061409;28;20061;-69
2023/06/30 01:03:11;;;;;;;7.53;2.28;;;;;;;;;;5063612;28;20094;-69
2023/06/30 01:05:54;;;;;;;3.38;1.67;;;;;;;;;;5067759;28;20045;-70
2023/06/30 01:08:33;;;;;;;5.75;1.83;;;;;;;;;;5063820;28;20828;-68
2023/06/30 01:11:00;;;;;;;8.85;2.17;;;;;;;;;;5070509;28;20083;-68
2023/06/30 01:13:28;;;;;;;10.32;2.22;;;;;;;;;;5075236;28;20061;-68
2023/06/30 01:15:56;;;;;;;4.38;1.80;;;;;;;;;;5077605;28;20146;-67
2023/06/30 01:18:22;;;;;;;3.10;1.83;;;;;;;;;;5063952;28;20596;-69
2023/06/30 01:20:50;;;;;;;4.68;2.13;;;;;;;;;;5057678;28;21587;-68
2023/06/30 01:23:26;;;;;;;3.35;1.88;;;;;;;;;;5067610;28;20057;-69
2023/06/30 01:25:53;;;;;;;8.55;2.15;;;;;;;;;;5066029;28;20220;-68
2023/06/30 01:28:20;;;;;;;7.30;2.40;;;;;;;;;;5068071;28;20471;-67
2023/06/30 01:30:46;;;;;;;4.63;2.15;;;;;;;;;;5065013;28;20053;-68
2023/06/30 01:33:13;;;;;;;6.00;2.00;;;;;;;;;;5063990;28;20131;-68
2023/06/30 01:35:40;;;;;;;4.15;1.80;;;;;;;;;;5068908;28;20144;-69
2023/06/30 01:38:07;;;;;;;5.68;2.05;;;;;;;;;;5075813;28;20063;-68
2023/06/30 01:40:33;;;;;;;6.65;2.17;;;;;;;;;;5061503;28;20061;-70
2023/06/30 01:43:00;;;;;;;7.22;2.03;;;;;;;;;;5063193;28;20566;-69
2023/06/30 01:45:27;;;;;;;5.65;1.70;;;;;;;;;;5064827;28;20060;-68
2023/06/30 01:47:54;;;;;;;13.00;2.40;;;;;;;;;;5067986;28;20049;-70
2023/06/30 01:50:21;;;;;;;4.60;1.77;;;;;;;;;;5063057;28;20059;-69
2023/06/30 01:52:48;;;;;;;5.40;1.77;;;;;;;;;;5063080;28;20283;-69
2023/06/30 01:55:15;;;;;;;9.75;2.00;;;;;;;;;;5065325;28;20058;-70
2023/06/30 01:57:42;;;;;;;5.97;2.00;;;;;;;;;;5064189;28;20502;-69
2023/06/30 02:00:08;;;;;;;9.25;2.38;;;;;;;;;;5069500;28;20053;-69
2023/06/30 02:02:35;;;;;;;2.80;2.10;;;;;;;;;;5078863;28;20523;-69
2023/06/30 02:05:02;;;;;;;7.18;2.38;;;;;;;;;;5060545;28;20140;-68
2023/06/30 02:07:28;;;;;;;7.65;1.92;;;;;;;;;;5063715;28;20053;-69
2023/06/30 02:09:55;;;;;;;2.88;1.42;;;;;;;;;;5071900;28;20056;-69
2023/06/30 02:12:21;;;;;;;9.65;2.22;;;;;;;;;;5078164;28;20051;-70
2023/06/30 02:14:48;;;;;;;6.90;2.08;;;;;;;;;;5066557;28;20111;-70
2023/06/30 02:17:14;;;;;;;8.98;2.70;;;;;;;;;;5072568;28;20494;-70
2023/06/30 02:19:41;;;;;;;3.95;2.00;;;;;;;;;;5067597;28;20517;-69
2023/06/30 02:22:07;;;;;;;5.13;2.10;;;;;;;;;;5078778;28;20103;-70
2023/06/30 02:24:34;;;;;;;3.53;2.03;;;;;;;;;;5059370;28;20142;-69
2023/06/30 02:27:00;;;;;;;3.15;1.60;;;;;;;;;;5072717;28;20452;-68
2023/06/30 02:29:27;;;;;;;7.30;2.15;;;;;;;;;;5061598;28;20402;-69
2023/06/30 02:31:53;;;;;;;4.13;1.90;;;;;;;;;;5060354;28;20737;-68
2023/06/30 02:34:20;;;;;;;7.10;1.90;;;;;;;;;;5062914;28;20120;-68
2023/06/30 02:36:48;;;;;;;3.25;1.45;;;;;;;;;;5066012;28;20087;-69
2023/06/30 02:39:15;;;;;;;9.05;2.22;;;;;;;;;;5066076;28;20063;-69
2023/06/30 02:41:41;;;;;;;2.35;1.65;;;;;;;;;;5065953;28;20056;-69
2023/06/30 02:44:08;;;;;;;6.20;1.75;;;;;;;;;;5078783;28;20521;-69
2023/06/30 02:46:34;;;;;;;3.55;1.73;;;;;;;;;;5066182;28;20508;-68
2023/06/30 02:49:01;;;;;;;7.22;2.00;;;;;;;;;;5060477;28;20046;-69
2023/06/30 02:51:27;;;;;;;2.35;1.92;;;;;;;;;;5063247;28;20053;-69
2023/06/30 02:53:53;;;;;;;3.15;2.10;;;;;;;;;;5080948;28;20404;-69
2023/06/30 02:56:20;;;;;;;4.30;2.03;;;;;;;;;;5070754;28;20151;-68
2023/06/30 02:58:46;;;;;;;4.53;1.85;;;;;;;;;;5062346;28;20111;-69
2023/06/30 03:01:13;;;;;;;4.72;2.45;;;;;;;;;;5058466;28;21552;-68
2023/06/30 03:03:39;;;;;;;3.20;1.73;;;;;;;;;;5071601;28;20084;-69
2023/06/30 03:06:06;;;;;;;4.43;2.15;;;;;;;;;;5060850;28;20152;-69
2023/06/30 03:08:32;;;;;;;4.53;1.45;;;;;;;;;;5061859;28;20060;-68
2023/06/30 03:10:59;;;;;;;4.82;2.33;;;;;;;;;;5064277;28;20535;-69
2023/06/30 03:13:26;;;;;;;11.02;2.35;;;;;;;;;;5075678;28;20448;-69
2023/06/30 03:15:52;;;;;;;4.07;1.80;;;;;;;;;;5067773;28;20052;-69
2023/06/30 03:18:18;;;;;;;2.45;1.90;;;;;;;;;;5067536;28;20053;-69
2023/06/30 03:20:45;;;;;;;4.30;1.83;;;;;;;;;;5073360;28;20056;-68
2023/06/30 03:23:14;;;;;;;6.90;1.90;;;;;;;;;;5066083;28;20053;-69
2023/06/30 03:25:41;;;;;;;5.15;1.88;;;;;;;;;;5066845;28;20057;-69
2023/06/30 03:28:07;;;;;;;4.53;1.73;;;;;;;;;;5072419;28;20060;-70
2023/06/30 03:30:34;;;;;;;5.32;2.00;;;;;;;;;;5055637;28;20053;-68
2023/06/30 03:33:00;;;;;;;3.92;1.70;;;;;;;;;;5061342;28;20546;-69
2023/06/30 03:35:27;;;;;;;8.65;1.88;;;;;;;;;;5060811;28;20052;-69
2023/06/30 03:37:53;;;;;;;2.25;1.65;;;;;;;;;;5074345;28;20674;-71
2023/06/30 03:40:20;;;;;;;3.05;2.20;;;;;;;;;;5063244;28;20168;-69
2023/06/30 03:42:46;;;;;;;7.72;2.03;;;;;;;;;;5063283;28;20585;-69
2023/06/30 03:45:13;;;;;;;3.70;2.03;;;;;;;;;;5057260;28;20045;-69
2023/06/30 03:47:39;;;;;;;4.32;1.80;;;;;;;;;;5062765;28;20056;-71
2023/06/30 03:50:06;;;;;;;4.60;2.05;;;;;;;;;;5063012;28;20052;-70
2023/06/30 03:52:32;;;;;;;3.40;1.85;;;;;;;;;;5057703;28;20540;-69
2023/06/30 03:54:59;;;;;;;4.00;2.28;;;;;;;;;;5047522;28;20063;-69
2023/06/30 03:57:25;;;;;;;4.85;2.13;;;;;;;;;;5068481;28;20063;-69
2023/06/30 03:59:52;;;;;;;2.65;1.75;;;;;;;;;;5068333;28;20053;-69
2023/06/30 04:02:18;;;;;;;4.10;1.45;;;;;;;;;;5063505;28;20148;-70
2023/06/30 04:04:45;;;;;;;10.65;2.08;;;;;;;;;;5063908;28;20053;-69
2023/06/30 04:07:11;;;;;;;5.60;1.88;;;;;;;;;;5066065;28;20051;-69
2023/06/30 04:09:38;;;;;;;3.17;1.60;;;;;;;;;;5062966;28;20060;-68
2023/06/30 04:12:05;;;;;;;7.55;1.95;;;;;;;;;;5064459;28;20131;-69
2023/06/30 04:14:31;;;;;;;6.30;2.50;;;;;;;;;;5060360;28;20964;-68
2023/06/30 04:16:58;;;;;;;3.13;2.13;;;;;;;;;;5074921;28;20144;-69
2023/06/30 04:19:24;;;;;;;5.95;2.00;;;;;;;;;;5060584;28;20084;-68
2023/06/30 04:21:51;;;;;;;9.20;2.63;;;;;;;;;;5057423;28;20507;-69
2023/06/30 04:24:19;;;;;;;6.68;2.50;;;;;;;;;;5056852;28;20057;-68
2023/06/30 04:26:45;;;;;;;3.28;2.08;;;;;;;;;;5059825;28;20049;-69
2023/06/30 04:29:12;;;;;;;4.60;1.73;;;;;;;;;;5073882;28;20059;-69
2023/06/30 04:31:41;;;;;;;3.58;1.90;;;;;;;;;;5065486;28;20081;-69
2023/06/30 04:34:08;;;;;;;4.65;1.95;;;;;;;;;;5063506;28;20668;-69
2023/06/30 04:36:34;;;;;;;5.65;2.40;;;;;;;;;;5061839;28;20053;-69
2023/06/30 04:39:01;;;;;;;5.10;1.50;;;;;;;;;;5065464;28;20055;-69
2023/06/30 04:41:27;;;;;;;6.05;1.98;;;;;;;;;;5053418;28;20060;-69
2023/06/30 04:43:54;;;;;;;9.82;1.85;;;;;;;;;;5056893;28;20064;-69
2023/06/30 04:46:21;;;;;;;5.43;1.70;;;;;;;;;;5055645;28;20053;-69
2023/06/30 04:48:48;;;;;;;8.57;2.47;;;;;;;;;;5066392;28;20063;-68
2023/06/30 04:51:15;;;;;;;2.75;1.60;;;;;;;;;;5064694;28;20060;-69
2023/06/30 04:53:42;;;;;;;3.38;2.00;;;;;;;;;;5060816;28;20578;-69
2023/06/30 04:56:08;;;;;;;6.03;2.03;;;;;;;;;;5063009;28;20107;-69
2023/06/30 04:58:35;;;;;;;8.18;2.22;;;;;;;;;;5062324;28;20111;-69
2023/06/30 05:01:01;;;;;;;5.75;2.10;;;;;;;;;;5055293;28;20055;-69
2023/06/30 05:03:28;;;;;;;7.28;2.78;;;;;;;;;;5070318;28;20142;-68
2023/06/30 05:05:56;;;;;;;4.63;1.73;;;;;;;;;;5067177;28;20271;-69
2023/06/30 05:08:23;;;;;;;4.80;2.08;;;;;;;;;;5066635;28;20207;-69
2023/06/30 05:10:49;;;;;;;10.05;1.77;;;;;;;;;;5077354;28;20088;-69
2023/06/30 05:13:15;;;;;;;3.42;1.58;;;;;;;;;;5069336;28;20102;-68
2023/06/30 05:15:42;;;;;;;17.23;1.92;;;;;;;;;;5061809;28;20122;-70
2023/06/30 05:18:09;;;;;;;2.42;1.85;;;;;;;;;;5062581;28;20053;-69
2023/06/30 05:20:39;;;;;;;6.47;1.98;;;;;;;;;;5061497;28;20341;-68
2023/06/30 05:23:05;;;;;;;6.90;1.83;;;;;;;;;;5068829;28;20048;-69
2023/06/30 05:25:32;;;;;;;5.40;1.73;;;;;;;;;;5065702;28;20045;-69
2023/06/30 05:27:58;;;;;;;2.22;1.35;;;;;;;;;;5063054;28;20179;-68
2023/06/30 05:30:25;;;;;;;3.60;1.50;;;;;;;;;;5063760;28;20502;-68
2023/06/30 05:32:51;;;;;;;1.92;1.45;;;;;;;;;;5047055;28;20989;-70
2023/06/30 05:35:18;;;;;;;3.95;1.80;;;;;;;;;;5069783;28;20132;-70
2023/06/30 05:37:44;;;;;;;2.80;1.67;;;;;;;;;;5064736;28;20319;-68
2023/06/30 05:40:11;;;;;;;3.15;1.73;;;;;;;;;;5068019;28;20053;-71
2023/06/30 05:42:37;;;;;;;8.90;1.75;;;;;;;;;;5059648;28;20057;-70
2023/06/30 05:45:04;;;;;;;8.43;2.13;;;;;;;;;;5072323;28;20126;-69
2023/06/30 05:47:30;;;;;;;14.02;2.63;;;;;;;;;;5064699;28;20052;-70
2023/06/30 05:49:57;;;;;;;1.88;1.40;;;;;;;;;;5060852;28;20146;-69
2023/06/30 05:52:24;;;;;;;3.17;1.60;;;;;;;;;;5044436;28;20114;-68
2023/06/30 05:54:51;;;;;;;4.82;1.90;;;;;;;;;;5043064;28;20195;-68
2023/06/30 05:57:18;;;;;;;3.80;1.80;;;;;;;;;;5057425;28;20053;-69
2023/06/30 05:59:44;;;;;;;5.07;1.67;;;;;;;;;;5064288;28;20048;-68
2023/06/30 06:02:11;;;;;;;1.73;1.42;;;;;;;;;;5056868;28;20463;-69
2023/06/30 06:04:37;;;;;;;5.60;1.40;;;;;;;;;;5058464;28;20565;-69
2023/06/30 06:07:05;;;;;;;2.25;1.63;;;;;;;;;;5060086;28;20357;-68
2023/06/30 06:09:32;;;;;;;8.80;2.40;;;;;;;;;;5056676;28;20063;-69
2023/06/30 06:12:00;;;;;;;5.32;1.63;;;;;;;;;;5061672;28;20049;-68
2023/06/30 06:14:26;;;;;;;10.43;1.92;;;;;;;;;;5061602;28;20076;-69
2023/06/30 06:16:53;;;;;;;4.72;1.70;;;;;;;;;;5054054;28;20057;-68
2023/06/30 06:19:20;;;;;;;2.80;1.33;;;;;;;;;;5061822;28;20565;-69
2023/06/30 06:21:47;;;;;;;6.60;1.60;;;;;;;;;;5063313;28;20495;-69
2023/06/30 06:24:16;;;;;;;1.88;1.13;;;;;;;;;;5062561;28;20123;-69
2023/06/30 06:26:43;;;;;;;2.58;1.40;;;;;;;;;;5061678;28;20057;-69
2023/06/30 06:29:09;;;;;;;3.83;1.40;;;;;;;;;;5062518;28;20064;-68
2023/06/30 06:31:35;;;;;;;2.58;1.10;;;;;;;;;;5060862;28;20111;-68
2023/06/30 06:34:02;;;;;;;3.85;1.63;;;;;;;;;;5061571;28;20172;-68
2023/06/30 06:36:29;;;;;;;2.95;1.65;;;;;;;;;;5066827;28;20055;-69
2023/06/30 06:38:55;;;;;;;4.97;1.48;;;;;;;;;;5058867;28;20065;-69
2023/06/30 06:41:22;;;;;;;5.13;1.17;;;;;;;;;;5065486;28;20490;-68
2023/06/30 06:43:48;;;;;;;3.95;1.30;;;;;;;;;;5061233;28;20084;-68
2023/06/30 06:46:15;;;;;;;5.40;1.33;;;;;;;;;;5058347;28;20083;-69
2023/06/30 06:48:41;;;;;;;4.78;1.20;;;;;;;;;;5072078;28;20052;-69
2023/06/30 06:51:08;;;;;;;4.15;1.33;;;;;;;;;;5065338;28;20072;-69
2023/06/30 06:53:34;;;;;;;4.53;1.73;;;;;;;;;;5061986;28;20053;-69
2023/06/30 06:56:02;;;;;;;6.13;1.85;;;;;;;;;;5063083;28;20053;-68
2023/06/30 06:58:29;;;;;;;5.38;1.45;;;;;;;;;;5071893;28;20049;-69
2023/06/30 07:00:56;;;;;;;1.65;0.98;;;;;;;;;;5062901;28;20056;-69
2023/06/30 07:03:23;;;;;;;3.00;1.55;;;;;;;;;;5058515;28;20135;-68
2023/06/30 07:05:49;;;;;;;2.30;1.23;;;;;;;;;;5045801;28;20537;-67
2023/06/30 07:08:16;;;;;;;6.68;1.13;;;;;;;;;;5061787;28;20135;-69
2023/06/30 07:10:44;;;;;;;1.85;1.02;;;;;;;;;;5061934;28;20107;-68
2023/06/30 07:13:10;;;;;;;2.83;1.15;;;;;;;;;;5064039;28;20048;-69
2023/06/30 07:15:37;;;;;;;0.88;0.77;;;;;;;;;;5061131;28;20125;-68
2023/06/30 07:18:03;;;;;;;5.68;1.33;;;;;;;;;;5061835;28;20080;-68
2023/06/30 07:20:30;;;;;;;2.65;0.90;;;;;;;;;;5059179;28;20531;-69
2023/06/30 07:22:57;;;;;;;3.92;1.00;;;;;;;;;;5060576;28;20503;-69
2023/06/30 07:25:24;;;;;;;2.55;1.38;;;;;;;;;;5058330;28;20250;-69
2023/06/30 07:27:54;;;;;;;5.82;1.23;;;;;;;;;;5074697;28;21094;-69
2023/06/30 07:30:21;;;;;;;3.13;1.00;;;;;;;;;;5061567;28;20507;-68
2023/06/30 07:32:49;;;;;;;2.10;0.93;;;;;;;;;;5061295;28;20057;-69
2023/06/30 07:35:16;;;;;;;5.28;1.00;;;;;;;;;;5058888;28;20053;-69
2023/06/30 07:37:43;;;;;;;2.17;0.80;;;;;;;;;;5063295;28;20055;-69
2023/06/30 07:40:11;;;;;;;2.75;0.93;;;;;;;;;;5072054;28;20136;-68
2023/06/30 07:42:43;;;;;;;3.25;1.45;;;;;;;;;;5055966;28;20506;-69
2023/06/30 07:45:11;;;;;;;4.53;1.63;;;;;;;;;;5060392;28;20088;-69
2023/06/30 07:47:40;;;;;;;6.38;1.33;;;;;;;;;;5063638;28;20575;-70
2023/06/30 07:50:09;;;;;;;3.88;1.20;;;;;;;;;;5083018;28;20143;-69
2023/06/30 07:52:37;;;;;;;3.05;1.13;;;;;;;;;;5062037;28;20134;-70
2023/06/30 07:55:04;;;;;;;4.47;1.10;;;;;;;;;;5059424;28;20522;-70
2023/06/30 07:57:30;;;;;;;3.80;1.10;;;;;;;;;;5060758;28;20060;-70
2023/06/30 07:59:57;;;;;;;2.95;1.00;;;;;;;;;;5060452;28;20610;-70
2023/06/30 08:02:24;;;;;;;3.35;1.10;;;;;;;;;;5064746;28;20052;-69
2023/06/30 08:04:50;;;;;;;2.92;0.98;;;;;;;;;;5061823;28;20195;-69
2023/06/30 08:07:17;;;;;;;5.03;1.80;;;;;;;;;;5062336;28;20049;-69
2023/06/30 08:09:43;;;;;;;2.05;1.00;;;;;;;;;;5060820;28;20067;-69
2023/06/30 08:12:10;;;;;;;3.53;1.17;;;;;;;;;;5063528;28;20107;-70
2023/06/30 08:14:39;;;;;;;0.80;0.70;;;;;;;;;;5061197;28;20057;-70
2023/06/30 08:17:06;;;;;;;1.63;0.82;;;;;;;;;;5061546;28;20053;-70
2023/06/30 08:19:32;;;;;;;2.80;0.98;;;;;;;;;;5062664;28;20176;-69
2023/06/30 08:22:15;;;;;;;1.80;1.10;;;;;;;;;;5063853;28;20067;-68
2023/06/30 08:24:42;;;;;;;2.78;1.20;;;;;;;;;;5064808;28;20493;-69
2023/06/30 08:27:09;;;;;;;6.90;1.25;;;;;;;;;;5065105;28;20057;-69
2023/06/30 08:29:36;;;;;;;7.25;1.25;;;;;;;;;;5063199;28;20130;-69
2023/06/30 08:32:03;;;;;;;3.58;1.02;;;;;;;;;;5068937;28;20606;-68
2023/06/30 08:34:29;;;;;;;2.78;1.23;;;;;;;;;;5064932;28;20053;-68
2023/06/30 08:36:56;;;;;;;4.28;1.10;;;;;;;;;;5064597;28;20549;-69
2023/06/30 08:39:23;;;;;;;2.15;1.10;;;;;;;;;;5063405;28;20057;-69
2023/06/30 08:41:52;;;;;;;6.65;1.35;;;;;;;;;;5062941;28;20136;-69
2023/06/30 08:44:22;;;;;;;4.50;1.40;;;;;;;;;;5064810;28;20095;-69
2023/06/30 08:46:53;;;;;;;1.02;0.88;;;;;;;;;;5068063;28;20061;-70
2023/06/30 08:49:24;;;;;;;1.63;1.20;;;;;;;;;;5063429;28;20068;-70
2023/06/30 08:51:53;;;;;;;1.75;1.40;;;;;;;;;;5065969;28;20053;-70
2023/06/30 08:54:19;;;;;;;1.63;1.27;;;;;;;;;;5063556;28;20162;-70
2023/06/30 08:56:46;;;;;;;5.28;1.42;;;;;;;;;;5071665;28;20067;-70
2023/06/30 08:59:12;;;;;;;6.22;1.38;;;;;;;;;;5062777;28;20056;-70
2023/06/30 09:01:39;;;;;;;3.72;0.88;;;;;;;;;;5063166;28;20049;-69
2023/06/30 09:04:06;;;;;;;0.82;0.75;;;;;;;;;;5059286;28;20053;-69
2023/06/30 09:06:35;;;;;;;1.30;1.20;;;;;;;;;;5064124;28;20172;-68
2023/06/30 09:09:04;;;;;;;3.67;1.30;;;;;;;;;;5077572;28;20588;-68
2023/06/30 09:11:31;;;;;;;1.75;1.20;;;;;;;;;;5069872;28;20132;-65
2023/06/30 09:14:01;;;;;;;6.90;1.40;;;;;;;;;;5068490;28;20080;-68
2023/06/30 09:16:31;;;;;;;2.75;1.48;;;;;;;;;;5063996;28;20441;-68
2023/06/30 09:18:58;;;;;;;3.13;1.42;;;;;;;;;;5064393;28;20499;-68
2023/06/30 09:21:25;;;;;;;3.08;1.20;;;;;;;;;;5063238;28;20056;-68
2023/06/30 09:23:53;;;;;;;3.92;1.40;;;;;;;;;;5062997;28;20096;-70
2023/06/30 09:26:19;;;;;;;2.97;1.90;;;;;;;;;;5063357;28;20166;-68
2023/06/30 09:28:46;;;;;;;1.48;1.30;;;;;;;;;;5062560;28;20049;-69
2023/06/30 09:31:14;;;;;;;3.22;1.33;;;;;;;;;;5061403;28;20092;-69
2023/06/30 09:33:42;;;;;;;4.05;1.25;;;;;;;;;;5061981;28;20053;-70
2023/06/30 09:36:15;;;;;;;3.45;1.05;;;;;;;;;;5061910;28;20149;-70
2023/06/30 09:38:41;;;;;;;2.08;1.05;;;;;;;;;;5061115;28;20533;-70
2023/06/30 09:41:17;;;;;;;3.13;1.13;;;;;;;;;;5056375;28;20053;-70
2023/06/30 09:43:44;;;;;;;1.70;1.00;;;;;;;;;;5062424;28;20057;-70
2023/06/30 09:46:11;;;;;;;2.22;1.10;;;;;;;;;;5060655;28;20091;-69
2023/06/30 09:48:43;;;;;;;2.95;1.15;;;;;;;;;;5067732;28;20056;-70
2023/06/30 09:51:09;;;;;;;1.02;0.93;;;;;;;;;;5065966;28;20056;-70
2023/06/30 09:53:37;;;;;;;3.08;1.40;;;;;;;;;;5065613;28;20679;-70
2023/06/30 09:56:04;;;;;;;5.63;1.20;;;;;;;;;;5063814;28;20063;-70
2023/06/30 09:58:30;;;;;;;4.65;1.85;;;;;;;;;;5063142;28;20150;-69
2023/06/30 10:00:58;;;;;;;5.22;1.30;;;;;;;;;;5062898;28;20482;-68
2023/06/30 10:03:24;;;;;;;1.77;1.00;;;;;;;;;;5067344;28;20049;-69
2023/06/30 10:05:51;;;;;;;7.25;1.40;;;;;;;;;;5062575;28;20085;-69
2023/06/30 10:08:20;;;;;;;5.53;1.40;;;;;;;;;;5063258;28;20063;-68
2023/06/30 10:10:47;;;;;;;3.55;1.23;;;;;;;;;;5065226;28;20044;-68
2023/06/30 10:13:15;;;;;;;4.43;1.30;;;;;;;;;;5072453;28;20065;-70
2023/06/30 10:15:42;;;;;;;4.07;1.30;;;;;;;;;;5062149;28;20056;-71
2023/06/30 10:18:12;;;;;;;4.05;1.10;;;;;;;;;;5063228;28;20538;-68
2023/06/30 10:20:39;;;;;;;7.68;1.30;;;;;;;;;;5058662;28;20103;-68
2023/06/30 10:23:14;;;;;;;3.53;1.45;;;;;;;;;;5058486;28;20057;-69
2023/06/30 10:25:40;;;;;;;4.32;1.55;;;;;;;;;;5062006;28;20501;-67
2023/06/30 10:28:08;;;;;;;3.20;1.40;;;;;;;;;;5058405;28;20115;-67
2023/06/30 10:30:35;;;;;;;4.13;1.42;;;;;;;;;;5057248;28;20656;-67
2023/06/30 10:33:01;;;;;;;3.60;1.10;;;;;;;;;;5060879;28;20201;-68
2023/06/30 10:35:28;;;;;;;2.05;1.27;;;;;;;;;;5057734;28;20140;-68
2023/06/30 10:37:55;;;;;;;11.10;1.33;;;;;;;;;;5064449;28;20180;-68
2023/06/30 10:40:26;;;;;;;2.53;1.20;;;;;;;;;;5065199;28;20076;-70
2023/06/30 10:42:56;;;;;;;1.65;1.48;;;;;;;;;;5065097;28;20052;-68
2023/06/30 10:45:30;;;;;;;1.80;1.30;;;;;;;;;;5061097;28;20053;-68
2023/06/30 10:47:57;;;;;;;2.80;1.23;;;;;;;;;;5066140;28;20582;-68
2023/06/30 10:50:24;;;;;;;2.00;1.05;;;;;;;;;;5057902;28;20053;-68
2023/06/30 10:52:54;;;;;;;4.50;1.27;;;;;;;;;;5061453;28;20053;-68
2023/06/30 10:55:26;;;;;;;1.30;1.20;;;;;;;;;;5061769;28;20657;-67
2023/06/30 10:57:53;;;;;;;2.47;1.70;;;;;;;;;;5062203;28;20083;-47
2023/06/30 11:00:21;;;;;;;3.35;1.10;;;;;;;;;;5058876;28;20151;-68
2023/06/30 11:02:48;;;;;;;1.30;1.08;;;;;;;;;;5060614;28;20057;-67
2023/06/30 11:05:19;;;;;;;4.00;1.35;;;;;;;;;;5058151;28;20060;-66
2023/06/30 11:07:51;;;;;;;4.22;1.70;;;;;;;;;;5062410;28;20053;-68
2023/06/30 11:10:25;;;;;;;2.63;1.30;;;;;;;;;;5062736;28;20059;-67
2023/06/30 11:12:56;;;;;;;2.35;1.40;;;;;;;;;;5065028;28;20073;-67
2023/06/30 11:15:25;;;;;;;3.00;1.63;;;;;;;;;;5060218;28;20084;-67
2023/06/30 11:17:52;;;;;;;2.10;1.30;;;;;;;;;;5061098;28;20049;-67
2023/06/30 11:20:18;;;;;;;4.85;1.60;;;;;;;;;;5059570;28;20063;-67
2023/06/30 11:23:17;;;;;;;4.00;1.60;;;;;;;;;;5062381;28;20148;-67
2023/06/30 11:25:44;;;;;;;4.65;1.33;;;;;;;;;;5015002;28;20045;-42
2023/06/30 11:28:12;;;;;;;2.30;1.40;;;;;;;;;;5067583;28;20490;-63
2023/06/30 11:30:38;;;;;;;5.07;2.28;;;;;;;;;;5061968;28;20056;-66
2023/06/30 11:33:06;;;;;;;2.17;1.42;;;;;;;;;;5059959;28;20503;-59
2023/06/30 11:35:34;;;;;;;1.60;1.30;;;;;;;;;;5061050;28;20053;-68
2023/06/30 11:38:00;;;;;;;4.05;1.73;;;;;;;;;;5066568;28;20041;-67
2023/06/30 11:40:27;;;;;;;2.58;1.70;;;;;;;;;;5061488;28;20049;-68
2023/06/30 11:42:53;;;;;;;1.70;1.42;;;;;;;;;;5060170;28;20431;-66
2023/06/30 11:45:20;;;;;;;8.20;1.83;;;;;;;;;;5059306;28;20637;-65
2023/06/30 11:47:49;;;;;;;7.53;1.63;;;;;;;;;;5061483;28;20491;-67
2023/06/30 11:50:15;;;;;;;2.83;1.40;;;;;;;;;;5061877;28;20443;-66
2023/06/30 11:52:49;;;;;;;1.73;1.52;;;;;;;;;;5066250;28;20136;-67
2023/06/30 11:55:15;;;;;;;1.55;1.25;;;;;;;;;;5059734;28;20140;-65
2023/06/30 11:57:43;;;;;;;2.25;1.65;;;;;;;;;;5061408;28;20882;-67
2023/06/30 12:00:11;;;;;;;3.88;1.80;;;;;;;;;;5059701;28;20076;-67
2023/06/30 12:02:41;;;;;;;3.75;1.60;;;;;;;;;;5054953;28;20057;-68
2023/06/30 12:05:26;;;;;;;5.85;1.50;;;;;;;;;;5072416;28;20065;-68
2023/06/30 12:07:55;;;;;;;2.20;1.80;;;;;;;;;;5058057;28;20079;-69
2023/06/30 12:10:38;;;;;;;3.97;1.63;;;;;;;;;;5070502;28;20151;-69
2023/06/30 12:13:06;;;;;;;14.40;2.00;;;;;;;;;;5061137;28;20084;-68
2023/06/30 12:15:33;;;;;;;3.15;1.63;;;;;;;;;;5058960;28;20482;-68
2023/06/30 12:18:01;;;;;;;2.58;1.52;;;;;;;;;;5060038;28;20060;-67
2023/06/30 12:20:35;;;;;;;3.15;1.42;;;;;;;;;;5059441;28;20057;-68
2023/06/30 12:23:03;;;;;;;3.83;1.67;;;;;;;;;;5059771;28;20053;-68
2023/06/30 12:25:30;;;;;;;3.30;1.50;;;;;;;;;;5059313;28;20148;-67
2023/06/30 12:27:57;;;;;;;8.75;2.05;;;;;;;;;;5061129;28;20677;-69
2023/06/30 12:30:27;;;;;;;1.60;1.25;;;;;;;;;;5059392;28;20626;-67
2023/06/30 12:32:58;;;;;;;4.47;1.83;;;;;;;;;;5060246;28;20539;-66
2023/06/30 12:35:29;;;;;;;3.95;1.70;;;;;;;;;;5059170;28;20063;-67
2023/06/30 12:37:55;;;;;;;4.07;1.83;;;;;;;;;;5060139;28;20613;-66
2023/06/30 12:40:22;;;;;;;3.22;1.70;;;;;;;;;;5059907;28;20048;-68
2023/06/30 12:42:51;;;;;;;3.92;1.50;;;;;;;;;;5059777;28;20130;-68
2023/06/30 12:45:17;;;;;;;4.53;1.70;;;;;;;;;;5058136;28;20060;-67
2023/06/30 12:47:44;;;;;;;3.03;1.58;;;;;;;;;;5063165;28;20049;-68
2023/06/30 12:50:11;;;;;;;1.83;1.65;;;;;;;;;;5066164;28;20118;-68
2023/06/30 12:52:37;;;;;;;4.07;1.70;;;;;;;;;;5059367;28;20057;-69
2023/06/30 12:55:04;;;;;;;4.00;1.92;;;;;;;;;;5060916;28;20052;-67
2023/06/30 13:15:19;;;;;;;4.43;1.58;;;;;;;;;;5098561;22;1294831;-68
2023/06/30 13:17:46;;;;;;;2.08;1.52;;;;;;;;;;5077745;28;20052;-68
2023/06/30 13:20:12;;;;;;;4.57;1.65;;;;;;;;;;5060308;28;20053;-67
2023/06/30 13:22:39;;;;;;;5.47;1.60;;;;;;;;;;5078199;28;20057;-68
2023/06/30 13:25:21;;;;;;;3.25;1.77;;;;;;;;;;5077814;28;20045;-68
2023/06/30 13:27:47;;;;;;;4.07;1.40;;;;;;;;;;5072933;28;20643;-69
2023/06/30 13:30:14;;;;;;;2.20;1.45;;;;;;;;;;5074920;28;20060;-68
2023/06/30 13:32:40;;;;;;;4.10;1.48;;;;;;;;;;5079339;28;20504;-68
2023/06/30 13:35:07;;;;;;;2.42;1.52;;;;;;;;;;5080133;28;20053;-65
2023/06/30 13:37:34;;;;;;;2.70;1.58;;;;;;;;;;5071463;28;20049;-67
2023/06/30 13:40:00;;;;;;;9.20;2.08;;;;;;;;;;5059096;28;20053;-69
2023/06/30 13:42:28;;;;;;;2.53;2.28;;;;;;;;;;5045864;28;20084;-66
2023/06/30 13:44:54;;;;;;;4.70;1.90;;;;;;;;;;5079895;28;20107;-67
2023/06/30 13:47:21;;;;;;;1.88;1.67;;;;;;;;;;5076559;28;20057;-67
2023/06/30 13:49:47;;;;;;;5.25;2.05;;;;;;;;;;5064021;28;20059;-66
2023/06/30 13:52:14;;;;;;;2.78;1.90;;;;;;;;;;5065649;28;20617;-67
2023/06/30 13:54:40;;;;;;;3.10;1.60;;;;;;;;;;5078653;28;20056;-67
2023/06/30 13:57:07;;;;;;;5.00;2.22;;;;;;;;;;5078439;28;20135;-68
2023/06/30 13:59:34;;;;;;;5.95;1.55;;;;;;;;;;5070292;28;20092;-67
2023/06/30 14:02:00;;;;;;;2.90;2.03;;;;;;;;;;5059241;28;20049;-67
2023/06/30 14:04:27;;;;;;;5.50;1.92;;;;;;;;;;5075722;28;20503;-67
2023/06/30 14:06:54;;;;;;;1.98;1.73;;;;;;;;;;5079434;28;20063;-69
2023/06/30 14:09:20;;;;;;;7.13;2.70;;;;;;;;;;5065478;28;20123;-70
2023/06/30 14:11:47;;;;;;;4.25;2.03;;;;;;;;;;5066870;28;20060;-68
2023/06/30 14:14:13;;;;;;;4.85;2.22;;;;;;;;;;5076848;28;20583;-69
2023/06/30 14:16:40;;;;;;;2.45;1.75;;;;;;;;;;5050593;28;20088;-68
2023/06/30 14:19:07;;;;;;;2.42;1.65;;;;;;;;;;5060576;28;20496;-68
2023/06/30 14:21:33;;;;;;;3.95;2.10;;;;;;;;;;5059374;28;20464;-69
2023/06/30 14:24:00;;;;;;;3.90;2.08;;;;;;;;;;5055893;28;20045;-68
2023/06/30 14:26:29;;;;;;;3.15;1.70;;;;;;;;;;5060783;28;20049;-67
2023/06/30 14:28:55;;;;;;;1.70;1.60;;;;;;;;;;5047570;28;20053;-65
2023/06/30 14:31:22;;;;;;;2.40;1.30;;;;;;;;;;5038977;28;20137;-69
2023/06/30 14:33:49;;;;;;;3.65;2.03;;;;;;;;;;5049319;28;20064;-68
2023/06/30 14:36:15;;;;;;;1.98;1.60;;;;;;;;;;5046379;28;20576;-68
2023/06/30 14:38:42;;;;;;;1.70;1.60;;;;;;;;;;5056661;28;20080;-67
2023/06/30 14:41:09;;;;;;;3.08;1.35;;;;;;;;;;5060080;28;20409;-67
2023/06/30 14:43:35;;;;;;;4.93;1.63;;;;;;;;;;5052599;28;20046;-66
2023/06/30 14:46:01;;;;;;;3.47;1.67;;;;;;;;;;5052216;28;20157;-67
2023/06/30 14:48:28;;;;;;;2.80;1.40;;;;;;;;;;5064418;28;20053;-68
2023/06/30 14:50:54;;;;;;;1.60;1.13;;;;;;;;;;5057243;28;20099;-67
2023/06/30 14:53:21;;;;;;;1.60;1.48;;;;;;;;;;5062113;28;20060;-67
2023/06/30 14:55:47;;;;;;;4.25;1.80;;;;;;;;;;5061547;28;20148;-67
2023/06/30 14:58:14;;;;;;;2.20;1.42;;;;;;;;;;5046141;28;20056;-67
2023/06/30 15:00:40;;;;;;;2.55;1.90;;;;;;;;;;5059052;28;20049;-67
2023/06/30 15:03:07;;;;;;;5.00;1.77;;;;;;;;;;5051300;28;20119;-66